Samir Amirguliyev

Olheiro-Chefe - Zira
3 Abr 2027
Sábado
Processo

Personalidade

Adaptabilidade (7) Ambição (3) Controvérsia (5) Lealdade (7) Pressão (16) Profissionalismo (13) Espírito Esportivo (8) Temperamento (4)

Perfil

Estilo de Treinamento Democrático
Licença Continental B
Determinação 5
Gestão de Pessoas 9
Motivação 4
Disciplina 4
Satisfação no Trabalho
50%
Fadiga
0%
Função Olheiro-Chefe
Salário 38.7K p/s
Contrato 14.03.2028

Desempenho

Comportamento Normal
Eficácia do Treinamento
18%
Desenvolvimento do Jogador
35%
Prevenção de Lesões
45%
Implementação Tática
35%

Eventos Recentes

Participou de uma reunião de recrutamento agora
Recomendou um alvo de transferência agora
Recomendou um alvo de transferência 7d atrás
Avaliou um jogador 7d atrás
Avaliou um jogador 7d atrás
Avaliou um jogador 7d atrás
Avaliou um jogador 7d atrás
Avaliou um jogador 7d atrás

Monitorando agora

171
Jogador Clube Status Habilidade Confiança Observado Última observação Último voto
Ivan Luquetta Neftekhimik Ativo 108 / 84 40% 3 28.03.2027 -
José Bica Leixões Ativo 110 / 99 40% 5 28.03.2027 -
Elliott List Northampton Town Ativo 91 / 99 40% 3 28.03.2027 -
Mateo Fernández Angusht Ativo 80 / 68 40% 6 27.03.2027 -
Vladislav Yakovlev Volga Ativo 100 / 93 40% 2 27.03.2027 -
Mason Bennett Harrogate Town Ativo 79 / 96 40% 1 27.03.2027 -
Miro Dinamo Makhachkala Ativo 112 / 119 40% 8 26.03.2027 -
Sam Nombe Milton Keynes Dons Ativo 117 / 116 40% 4 26.03.2027 -
Louis Appéré Cambridge United Ativo 91 / 109 40% 3 26.03.2027 -
Mésaque Djú Portimonense Ativo 99 / 105 40% 4 24.03.2027 -
Marcus Browne AFC Wimbledon Ativo 104 / 104 40% 1 24.03.2027 -
Edarlyn Reyes Arsenal Tula Ativo 102 / 121 40% 10 23.03.2027 -
Jordan Roberts Stevenage Ativo 117 / 121 40% 7 23.03.2027 -
Stephen Humphrys Bradford City Ativo 115 / 100 40% 4 23.03.2027 -
Lewis McCann Fleetwood Town Ativo 105 / 109 40% 5 22.03.2027 -
Stanislav Biblyk Chaika Ativo 86 / 81 40% 1 20.03.2027 -
Luka Reischl ADO Den Haag Ativo 103 / 124 40% 1 20.03.2027 -
Paul Glatzel Swindon Town Ativo 97 / 99 40% 2 17.03.2027 -
Conor McAleny Harrogate Town Ativo 83 / 81 40% 1 17.03.2027 -
Ramil Şeydayev Kapaz Ativo 104 / 107 40% 9 14.03.2027 -
Brandon Hanlan Doncaster Rovers Ativo 100 / 103 40% 8 14.03.2027 -
Evgeny Voronin Volga Ativo 99 / 98 40% 1 14.03.2027 -
Migran Ageyan Ufa Ativo 89 / 111 40% 4 13.03.2027 -
Amur Kalmykov Spartak Kostroma Ativo 106 / 113 40% 6 13.03.2027 -
Martin Sekulić Ural Ativo 106 / 97 40% 1 13.03.2027 -
Alexandr Saplinov Volga Ativo 102 / 109 40% 3 12.03.2027 -
Tyrese Shade Burton Albion Ativo 102 / 105 40% 5 12.03.2027 -
Cavid Madatov Khazar Ativo 91 / 107 40% 11 10.03.2027 -
Dilan Ortíz Ufa Ativo 104 / 103 40% 4 10.03.2027 -
Aaron Drinan Swindon Town Ativo 103 / 104 40% 3 10.03.2027 -
David Karaev KAMAZ Ativo 94 / 80 40% 4 09.03.2027 -
Ivan Bendera Epicentr Ativo 87 / 94 40% 3 09.03.2027 -
Ekain Orobengoa Real Sociedad Ativo 104 / 111 40% 3 04.03.2027 -
Miguel Falé Pacos de Ferreira Ativo 105 / 111 40% 1 04.03.2027 -
Dawid Polkowski Al-Njoom Ativo 86 / 67 40% 2 03.03.2027 -
Hernán Paredes Volga Ativo 91 / 108 40% 1 03.03.2027 -
Gilson Benchimol Akron Ativo 103 / 108 40% 3 02.03.2027 -
Amar Rahmanović Krylya Sovetov Ativo 121 / 96 40% 3 01.03.2027 -
Marcos Cuenca Zaragoza Ativo 116 / 105 40% 1 01.03.2027 -
Kamran Aliev SKA Khabarovsk Ativo 96 / 120 40% 4 26.02.2027 -
Milan Vidakov Radnicki 1923 Ativo 97 / 104 40% 3 26.02.2027 -
Václav Sejk Sigma Olomouc Ativo 124 / 133 40% 1 26.02.2027 -
Vladislav Sarveli Nizhniy Novgorod Ativo 100 / 124 40% 3 25.02.2027 -
Silas Nwankwo Police Union Ativo 86 / 95 40% 3 25.02.2027 -
Vincent Aboubakar Neftchi Ativo 118 / 101 40% 5 24.02.2027 -
Nikita Pogrebnev Ryazan Ativo 86 / 72 40% 1 23.02.2027 -
Tom Bradshaw Feirense Ativo 110 / 97 40% 3 22.02.2027 -
Carlos Zepeda Kvant Ativo 78 / 64 40% 3 22.02.2027 -
Victor Omune Gazelle Ativo 77 / 76 40% 1 22.02.2027 -
Alexandr Yushin Torpedo Moscow Ativo 113 / 100 40% 3 19.02.2027 -
Job Ochieng Real Sociedad Ativo 107 / 105 40% 1 16.02.2027 -
Pavel Meleshin Sochi Ativo 125 / 111 40% 4 13.02.2027 -
Fabio Abiuso Carrarese Ativo 117 / 106 40% 1 12.02.2027 -
Qara Ozobic Inter Ativo 111 / 115 40% 1 12.02.2027 -
Ilja Safronov Rotor Ativo 92 / 88 40% 4 11.02.2027 -
Daniil Konoplev Dinamo Bryansk Ativo 87 / 66 40% 2 11.02.2027 -
Matías Mansilla Yenisey Ativo 90 / 106 40% 1 10.02.2027 -
Shawn McCoulsky Harrogate Town Ativo 81 / 92 40% 1 07.02.2027 -
Gevork Sarkisyan Saturn Ativo 75 / 75 40% 1 06.02.2027 -
Lars Veldwijk Al-Nahda Ativo 92 / 100 40% 2 05.02.2027 -
Hakeeb Adelakun Doncaster Rovers Ativo 104 / 105 40% 3 05.02.2027 -
Danila Shilov Dinamo Stavropol Ativo 104 / 76 40% 1 03.02.2027 -
Yordy Reyna Rodina Ativo 121 / 109 40% 1 29.01.2027 -
Kane Drummond Oldham Athletic Ativo 95 / 101 40% 1 29.01.2027 -
Alexandr Olenev Nart Ativo 85 / 71 40% 1 29.01.2027 -
Mahir Abdullayev AZAL Ativo 108 / 107 40% 4 25.01.2027 -
Johnson Amuzu Berekum Chelsea Ativo 87 / 71 40% 1 24.01.2027 -
Jesús Molina Chelyabinsk Ativo 77 / 109 40% 2 23.01.2027 -
Musa Qurbanlı Qarabag Ativo 112 / 111 40% 1 23.01.2027 -
Nikita Kireev Dinamo Vologda Ativo 81 / 75 40% 4 21.01.2027 -
Midana Cassamá Portimonense Ativo 95 / 108 40% 1 20.01.2027 -
Maxim Kutovoy Salyut Ativo 96 / 70 40% 1 18.01.2027 -
Məqsəd İsayev Kapaz Ativo 80 / 97 65% 1 11.01.2027 Aprovar
Prince Owusu Gabala Ativo 88 / 82 65% 1 07.01.2027 Aprovar
Eddy Garayev Ravan Ativo 84 / 91 40% 2 31.12.2026 -
Jacobo Alcalde SKA Khabarovsk Ativo 90 / 77 40% 1 29.12.2026 -
Daniil Agureev Amkar Ativo 90 / 71 40% 1 27.12.2026 -
Alexandr Dolgov Amkar Ativo 101 / 95 40% 2 26.12.2026 -
Matty Stevens AFC Wimbledon Rejeitado 107 / 117 40% 3 24.12.2026 Rejeitar
Duván Riascos Jihlava Ativo 78 / 72 40% 1 24.12.2026 -
Denis Rubanov Dinamo Stavropol Ativo 71 / 79 40% 2 22.12.2026 -
Daniel Udoh Salford City Ativo 108 / 89 40% 1 22.12.2026 -
Gedeon Guzina Orenburg Ativo 118 / 122 40% 1 18.12.2026 -
Uroš Đuranović Sliema Wanderers Ativo 106 / 106 40% 5 15.12.2026 -
Piotr Samiec-Talar Slask Ativo 113 / 108 40% 1 15.12.2026 -
Franklin Sasere Birkirkara Ativo 86 / 81 40% 3 09.12.2026 -
Marcelo Sliema Wanderers Ativo 79 / 71 40% 2 09.12.2026 -
Vladimir Khubulov Dinamo Makhachkala Rejeitado 115 / 86 40% 4 07.12.2026 Rejeitar
Dmitry Tsypchenko Torpedo Moscow Ativo 110 / 116 40% 1 06.12.2026 -
Nikos Karelis Sliema Wanderers Ativo 93 / 100 40% 3 04.12.2026 -
Soslan Lysenko Spartak Nalchik Ativo 68 / 71 40% 1 04.12.2026 -
Ryder Matos Hibernians Ativo 99 / 108 40% 1 02.12.2026 -
Yeangel Montero Naxxar Lions Ativo 107 / 90 40% 5 01.12.2026 -
Ilja Stefanovich Leningradets Ativo 89 / 91 40% 2 28.11.2026 -
Ruslan Bayramov Inter Perdido 100 / 109 40% 4 24.11.2026 Observar
Dmitry Lavrischev Kapaz Ativo 89 / 78 40% 2 23.11.2026 -
Realdo Fili Khazar Ativo 105 / 92 40% 3 21.11.2026 -
Diamanka Senghor Mosta Ativo 81 / 103 40% 1 21.11.2026 -
Albek Gongapshev Shinnik Ativo 88 / 89 40% 1 20.11.2026 -
Robert Murić Floriana Ativo 108 / 98 40% 3 19.11.2026 -
Claudio Salto Almagro Ativo 91 / 126 40% 2 19.11.2026 -
Isaac Matondo Koper Ativo 93 / 94 40% 2 18.11.2026 -
Jack Vale Alcione Milano Ativo 95 / 98 40% 1 18.11.2026 -
Renaldo Cephas Qarabag Ativo 121 / 105 40% 3 16.11.2026 -
Denys Rezepov Nyva Ativo 78 / 86 40% 1 15.11.2026 -
Bendrix Parra AZAL Ativo 92 / 80 40% 4 13.11.2026 -
Alejandro Valencia La Equidad Ativo 122 / 123 40% 4 12.11.2026 -
Patrick Schmidt Tarxien Rainbows Ativo 105 / 87 40% 1 11.11.2026 -
Lucas González Estudiantes Ativo 102 / 92 40% 2 09.11.2026 -
Jurica Poldrugač Rudes Ativo 99 / 88 40% 2 01.11.2026 -
Marcelo Torres Gimnasia La Plata Ativo 120 / 106 40% 3 28.10.2026 -
Pachu Kapaz Ativo 94 / 103 40% 4 23.10.2026 -
Tamkin Ismayilov Inter Ativo 88 / 82 40% 3 22.10.2026 -
Suraju Lawal Abia Warriors Ativo 86 / 102 40% 1 21.10.2026 -
Fərid Nəbiyev Kapaz Ativo 101 / 93 40% 1 21.10.2026 -
Marcel Reguła Zaglebie Ativo 96 / 94 40% 1 20.10.2026 -
Maximiliano Gómez Nacional Ativo 127 / 130 40% 1 20.10.2026 -
Ognjen Bondžulić Mladost Lucani Ativo 100 / 98 40% 1 19.10.2026 -
Cristhian Medina Smorgon Ativo 98 / 99 40% 1 18.10.2026 -
Steven Alfred Torpedo-BelAZ Ativo 108 / 78 40% 1 17.10.2026 -
Oscar Ramirez La Equidad Ativo 95 / 114 40% 2 15.10.2026 -
Javier Martínez Almirante Brown Ativo 121 / 95 40% 1 15.10.2026 -
Franco Toloza Morón Ativo 112 / 123 40% 1 15.10.2026 -
Kamran Nazarov Khazar Ativo 104 / 99 40% 4 10.10.2026 -
Juan Cruz Zurbriggen San Telmo Ativo 88 / 80 40% 2 08.10.2026 -
Francisco Galván Deportivo Municipal Ativo 101 / 121 40% 3 08.10.2026 -
Miullen Hibernians Ativo 86 / 86 40% 1 05.10.2026 -
Vladimir Obukhov Dinamo Minsk Ativo 99 / 105 40% 1 05.10.2026 -
Bassala Sambou Neftchi Ativo 111 / 97 40% 1 03.10.2026 -
Sory Diarra Haugesund Ativo 115 / 93 40% 1 30.09.2026 -
Jurgen Degabriele Hibernians Ativo 81 / 70 40% 1 29.09.2026 -
Enzo Larrosa Independiente Medellin Ativo 114 / 123 40% 3 28.09.2026 -
Ramiro Ruiz Rodríguez Atlético Tucumán Ativo 134 / 116 40% 1 28.09.2026 -
Alex Tanque Valletta Ativo 79 / 77 40% 1 27.09.2026 -
Manuel Olaya Sumgayit Ativo 88 / 75 40% 1 24.09.2026 -
Igor Tyjon Blackburn Rovers Ativo 90 / 108 40% 1 24.09.2026 -
Bruno Gomes Valletta Ativo 95 / 107 40% 1 22.09.2026 -
Taofeek Ismaheel Qarabag Ativo 104 / 118 40% 2 21.09.2026 -
Marco Rossello Probiy Ativo 65 / 99 40% 1 21.09.2026 -
Jordan Rezabala Neftchi Ativo 107 / 91 40% 3 20.09.2026 -
Albin Andersson Falkenberg Ativo 98 / 121 40% 1 20.09.2026 -
Ignacio Copetti Central Córdoba SdE Ativo 92 / 114 40% 1 18.09.2026 -
Magnus Lankhof Dahlby Stabaek Ativo 112 / 121 40% 1 18.09.2026 -
Abdulmajid Aminu Barau Ativo 85 / 70 40% 1 17.09.2026 -
Ignacio Sabatini Gimnasia y Esgrima Ativo 92 / 104 40% 1 16.09.2026 -
Vladislav Fedosov Slutsk Ativo 96 / 106 40% 1 16.09.2026 -
Genaro Rossi San Martín SJ Ativo 98 / 132 40% 3 14.09.2026 -
Mamadou Traoré Castellón Ativo 87 / 101 40% 1 12.09.2026 -
Alfredo Mejia Cortulua Ativo 81 / 76 40% 1 12.09.2026 -
Ramiro Costa Central Norte Ativo 117 / 95 40% 1 07.09.2026 -
Imamu Bala Wikki Tourists Ativo 74 / 86 40% 1 07.09.2026 -
Sebastián Corradi Talleres Ativo 83 / 72 40% 1 05.09.2026 -
Jordan Hugill Esbjerg Ativo 107 / 70 40% 1 04.09.2026 -
Kamarai Swyer Northampton Town Ativo 93 / 94 40% 1 01.09.2026 -
Ağadadaş Salyanskiy Neftchi Ativo 92 / 90 40% 2 31.08.2026 -
Marcos Camarda Santiago Wanderers Ativo 89 / 126 40% 1 30.08.2026 -
Reuben Reid Charlton Athletic Ativo 96 / 103 40% 2 28.08.2026 -
Cristian Núñez Huracán Ativo 104 / 92 40% 1 28.08.2026 -
Víctor Machado Independiente Rivadavia Ativo 79 / 74 40% 1 25.08.2026 -
Sebastián Gularte Qarabag Ativo 89 / 100 40% 1 23.08.2026 -
Vitinho River Plate Ativo 72 / 93 40% 1 22.08.2026 -
Oliver Heiðarsson Lokomotiva Zagreb Ativo 111 / 106 40% 1 22.08.2026 -
Jonathan Ledesma Platense Ativo 88 / 90 40% 1 21.08.2026 -
Matija Malekinušić Novi Pazar Ativo 103 / 104 40% 1 20.08.2026 -
Dimitrij Nazarov Qarabag Ativo 114 / 114 40% 1 19.08.2026 -
Vernon Masara Burnley Ativo 78 / 95 40% 1 15.08.2026 -
Vugar Nadirov Khazar Ativo 85 / 86 62% 1 10.08.2026 Aprovar
Braian Uribe Huracán Ativo 113 / 102 40% 1 08.08.2026 -
Orlando Mareco Neftchi Ativo 91 / 105 40% 1 06.08.2026 -
Jhon Murillo America de Cali Ativo 126 / 133 40% 1 02.08.2026 -
Enzo Avaro Mitre Ativo 109 / 89 40% 1 02.08.2026 -